createdAt,value
2018-07-16T00:04:31.818Z,9.83
2018-07-16T00:07:08.925Z,7.83
2018-07-16T00:09:45.096Z,7.97
2018-07-16T00:12:21.796Z,7.40
2018-07-16T00:14:59.073Z,8.00
2018-07-16T00:17:36.000Z,6.50
2018-07-16T00:20:12.684Z,7.00
2018-07-16T00:22:49.292Z,10.30
2018-07-16T00:25:26.009Z,7.57
2018-07-16T00:28:03.083Z,7.97
2018-07-16T00:30:40.294Z,8.27
2018-07-16T00:33:16.354Z,8.80
2018-07-16T00:35:52.565Z,8.23
2018-07-16T00:38:29.587Z,8.50
2018-07-16T00:41:06.512Z,8.23
2018-07-16T00:43:43.366Z,8.27
2018-07-16T00:46:20.018Z,8.20
2018-07-16T00:48:56.416Z,7.70
2018-07-16T00:51:32.484Z,8.90
2018-07-16T00:54:08.378Z,7.83
2018-07-16T00:56:44.840Z,8.70
2018-07-16T00:59:21.254Z,8.43
2018-07-16T01:01:57.415Z,8.77
2018-07-16T01:04:34.235Z,7.90
2018-07-16T01:07:11.236Z,8.53
2018-07-16T01:09:48.335Z,9.80
2018-07-16T01:12:26.060Z,10.00
2018-07-16T01:15:02.653Z,10.70
2018-07-16T01:17:39.340Z,11.30
2018-07-16T01:20:16.189Z,10.60
2018-07-16T01:22:52.417Z,10.53
2018-07-16T01:25:44.310Z,12.40
2018-07-16T01:28:20.651Z,11.60
2018-07-16T01:30:57.351Z,11.03
2018-07-16T01:33:34.509Z,12.43
2018-07-16T01:36:10.848Z,12.10
2018-07-16T01:38:47.344Z,11.00
2018-07-16T01:41:23.801Z,11.63
2018-07-16T01:44:00.897Z,11.67
2018-07-16T01:46:37.534Z,10.20
2018-07-16T01:49:14.806Z,12.40
2018-07-16T01:51:50.590Z,11.80
2018-07-16T01:54:26.973Z,10.10
2018-07-16T01:57:03.682Z,10.87
2018-07-16T01:59:40.935Z,10.43
2018-07-16T02:02:17.842Z,10.10
2018-07-16T02:07:58.290Z,9.87
2018-07-16T02:10:35.501Z,9.90
2018-07-16T02:13:12.382Z,11.93
2018-07-16T02:15:48.682Z,9.53
2018-07-16T02:18:25.394Z,9.87
2018-07-16T02:21:01.249Z,10.50
2018-07-16T02:23:37.350Z,9.20
2018-07-16T02:26:14.126Z,10.67
2018-07-16T02:28:50.201Z,11.03
2018-07-16T02:31:28.759Z,11.13
2018-07-16T02:34:05.224Z,11.60
2018-07-16T02:36:41.754Z,11.33
2018-07-16T02:39:17.832Z,10.67
2018-07-16T02:41:53.632Z,11.63
2018-07-16T02:44:30.379Z,11.93
2018-07-16T02:47:07.269Z,12.10
2018-07-16T02:49:43.867Z,11.57
2018-07-16T02:52:20.850Z,12.20
2018-07-16T02:54:57.651Z,10.10
2018-07-16T02:57:34.632Z,11.07
2018-07-16T03:00:12.040Z,11.90
2018-07-16T03:02:48.639Z,13.60
2018-07-16T03:05:24.940Z,13.60
2018-07-16T03:08:01.580Z,12.70
2018-07-16T03:10:38.616Z,11.40
2018-07-16T03:13:15.828Z,13.30
2018-07-16T03:15:52.155Z,11.90
2018-07-16T03:18:28.965Z,13.40
2018-07-16T03:21:05.812Z,13.70
2018-07-16T03:23:42.991Z,13.27
2018-07-16T03:26:19.989Z,13.00
2018-07-16T03:28:56.560Z,13.10
2018-07-16T03:31:32.458Z,14.03
2018-07-16T03:34:09.375Z,13.17
2018-07-16T03:36:46.138Z,14.40
2018-07-16T03:39:22.647Z,12.90
2018-07-16T03:41:59.071Z,13.23
2018-07-16T03:44:35.762Z,11.47
2018-07-16T03:47:12.341Z,12.27
2018-07-16T03:49:48.955Z,12.13
2018-07-16T03:52:26.414Z,12.17
2018-07-16T03:55:03.042Z,13.63
2018-07-16T03:57:40.051Z,11.20
2018-07-16T04:00:17.624Z,12.20
2018-07-16T04:02:54.334Z,11.03
2018-07-16T04:05:31.606Z,10.70
2018-07-16T04:08:07.892Z,12.97
2018-07-16T04:10:45.725Z,12.60
2018-07-16T04:13:22.153Z,11.07
2018-07-16T04:15:59.598Z,12.10
2018-07-16T04:18:35.962Z,13.20
2018-07-16T04:21:11.958Z,12.67
2018-07-16T04:23:49.460Z,11.80
2018-07-16T04:26:26.446Z,11.53
2018-07-16T04:29:02.684Z,12.57
2018-07-16T04:31:38.630Z,11.60
2018-07-16T04:34:15.342Z,12.73
2018-07-16T04:36:52.551Z,12.67
2018-07-16T04:39:28.952Z,13.90
2018-07-16T04:42:04.859Z,11.90
2018-07-16T04:44:40.810Z,13.00
2018-07-16T04:47:17.527Z,11.73
2018-07-16T04:49:54.043Z,11.27
2018-07-16T04:52:30.420Z,11.57
2018-07-16T04:55:07.651Z,13.30
2018-07-16T04:57:45.226Z,13.60
2018-07-16T05:00:21.784Z,11.83
2018-07-16T05:02:58.648Z,12.60
2018-07-16T05:05:36.445Z,10.83
2018-07-16T05:08:12.182Z,11.77
2018-07-16T05:10:48.275Z,10.83
2018-07-16T05:13:24.842Z,10.83
2018-07-16T05:16:01.422Z,10.20
2018-07-16T05:18:37.834Z,10.40
2018-07-16T05:21:14.759Z,10.47
2018-07-16T05:23:51.272Z,10.13
2018-07-16T05:26:27.729Z,10.30
2018-07-16T05:29:04.622Z,11.47
2018-07-16T05:31:42.174Z,10.27
2018-07-16T05:34:19.648Z,11.77
2018-07-16T05:36:57.643Z,11.37
2018-07-16T05:39:34.305Z,13.00
2018-07-16T05:42:11.087Z,12.50
2018-07-16T05:44:48.151Z,11.70
2018-07-16T05:47:24.750Z,12.43
2018-07-16T05:50:01.966Z,11.80
2018-07-16T05:52:38.015Z,11.73
2018-07-16T05:55:14.036Z,12.30
2018-07-16T05:57:50.298Z,11.80
2018-07-16T06:00:26.735Z,11.93
2018-07-16T06:03:02.620Z,13.30
2018-07-16T06:05:38.438Z,13.47
2018-07-16T06:08:15.322Z,13.67
2018-07-16T06:10:51.171Z,12.07
2018-07-16T06:13:28.578Z,9.90
2018-07-16T06:16:05.716Z,12.90
2018-07-16T06:18:53.811Z,12.77
2018-07-16T06:21:30.575Z,13.10
2018-07-16T06:24:07.332Z,11.40
2018-07-16T06:26:43.296Z,12.27
2018-07-16T06:29:19.068Z,12.57
2018-07-16T06:31:55.568Z,12.20
2018-07-16T06:34:32.018Z,12.63
2018-07-16T06:37:08.321Z,12.43
2018-07-16T06:39:45.193Z,12.57
2018-07-16T06:42:22.528Z,14.80
2018-07-16T06:44:59.541Z,14.93
2018-07-16T06:47:41.682Z,14.30
2018-07-16T06:50:18.486Z,17.73
2018-07-16T06:52:56.321Z,16.13
2018-07-16T06:55:32.663Z,17.80
2018-07-16T06:58:08.919Z,17.90
2018-07-16T07:00:44.823Z,17.10
2018-07-16T07:03:21.527Z,20.10
2018-07-16T07:05:57.361Z,20.07
2018-07-16T07:08:33.477Z,17.93
2018-07-16T07:11:10.187Z,19.80
2018-07-16T07:13:45.966Z,18.27
2018-07-16T07:16:22.419Z,10.43
2018-07-16T07:18:58.629Z,9.47
2018-07-16T07:21:34.756Z,9.80
2018-07-16T07:24:11.588Z,9.37
2018-07-16T07:26:48.280Z,6.60
2018-07-16T07:29:26.100Z,5.53
2018-07-16T07:32:04.403Z,6.03
2018-07-16T07:34:41.171Z,6.13
2018-07-16T07:37:17.728Z,6.00
2018-07-16T07:39:54.840Z,5.47
2018-07-16T07:42:32.130Z,5.90
2018-07-16T07:45:08.130Z,5.17
2018-07-16T07:47:44.660Z,6.30
2018-07-16T07:50:21.809Z,7.30
2018-07-16T07:52:58.462Z,6.47
2018-07-16T07:58:29.963Z,7.20
2018-07-16T08:01:06.622Z,6.70
2018-07-16T08:03:42.574Z,5.60
2018-07-16T08:06:18.275Z,7.27
2018-07-16T08:08:54.880Z,4.23
2018-07-16T08:11:35.564Z,5.17
2018-07-16T08:14:11.871Z,3.50
2018-07-16T08:16:47.653Z,3.00
2018-07-16T08:19:25.299Z,2.97
2018-07-16T08:22:01.934Z,3.40
2018-07-16T08:24:38.095Z,4.80
2018-07-16T08:27:14.832Z,3.17
2018-07-16T08:29:51.609Z,4.27
2018-07-16T08:32:27.932Z,3.80
2018-07-16T08:35:05.355Z,3.43
2018-07-16T08:37:41.237Z,4.50
2018-07-16T08:40:17.400Z,2.80
2018-07-16T08:42:53.661Z,3.50
2018-07-16T08:45:30.513Z,2.73
2018-07-16T08:48:07.129Z,2.87
2018-07-16T08:50:43.111Z,2.90
2018-07-16T08:53:19.316Z,3.17
2018-07-16T08:55:56.214Z,3.73
2018-07-16T08:58:33.318Z,3.80
2018-07-16T09:01:09.981Z,3.17
2018-07-16T09:03:46.758Z,3.30
2018-07-16T09:06:23.604Z,3.67
2018-07-16T09:09:00.329Z,3.30
2018-07-16T09:11:36.903Z,4.00
2018-07-16T09:14:12.750Z,3.60
2018-07-16T09:16:49.632Z,3.30
2018-07-16T09:19:26.454Z,3.10
2018-07-16T09:22:03.284Z,15.73
2018-07-16T09:24:39.916Z,3.77
2018-07-16T09:27:16.120Z,3.90
2018-07-16T09:29:51.942Z,4.00
2018-07-16T09:32:28.341Z,4.70
2018-07-16T09:35:05.239Z,4.13
2018-07-16T09:37:41.623Z,4.23
2018-07-16T09:40:18.464Z,3.97
2018-07-16T09:42:54.993Z,4.67
2018-07-16T09:45:31.044Z,5.30
2018-07-16T09:48:07.916Z,5.10
2018-07-16T09:50:44.631Z,3.80
2018-07-16T09:53:21.297Z,5.20
2018-07-16T09:55:57.146Z,5.07
2018-07-16T09:58:33.485Z,5.00
2018-07-16T10:01:14.786Z,4.73
2018-07-16T10:03:51.012Z,4.40
2018-07-16T10:06:27.555Z,4.90
2018-07-16T10:09:05.399Z,4.70
2018-07-16T10:11:41.845Z,5.10
2018-07-16T10:14:19.157Z,4.63
2018-07-16T10:16:55.694Z,4.80
2018-07-16T10:19:31.644Z,3.80
2018-07-16T10:22:08.328Z,5.07
2018-07-16T10:24:44.209Z,4.40
2018-07-16T10:27:21.690Z,4.00
2018-07-16T10:29:57.650Z,3.87
2018-07-16T10:32:34.594Z,3.77
2018-07-16T10:35:10.993Z,4.07
2018-07-16T10:37:48.590Z,3.80
2018-07-16T10:40:24.812Z,4.33
2018-07-16T10:43:01.644Z,3.93
2018-07-16T10:45:38.449Z,3.50
2018-07-16T10:48:15.281Z,3.53
2018-07-16T10:50:52.002Z,3.40
2018-07-16T10:53:28.154Z,3.70
2018-07-16T10:56:04.992Z,3.73
2018-07-16T10:58:41.869Z,4.80
2018-07-16T11:01:20.232Z,3.53
2018-07-16T11:03:57.105Z,3.90
2018-07-16T11:06:34.249Z,2.43
2018-07-16T11:09:10.706Z,2.90
2018-07-16T11:11:48.209Z,2.83
2018-07-16T11:14:24.001Z,2.80
2018-07-16T11:16:59.971Z,2.93
2018-07-16T11:19:37.361Z,2.90
2018-07-16T11:22:13.723Z,2.63
2018-07-16T11:24:50.898Z,2.53
2018-07-16T11:27:28.205Z,3.10
2018-07-16T11:30:06.174Z,2.73
2018-07-16T11:32:43.029Z,2.50
2018-07-16T11:35:20.359Z,2.30
2018-07-16T11:37:58.296Z,1.60
2018-07-16T11:40:35.867Z,2.40
2018-07-16T11:43:13.329Z,3.33
2018-07-16T11:45:50.515Z,2.10
2018-07-16T11:48:27.089Z,2.17
2018-07-16T11:51:03.650Z,2.40
2018-07-16T11:53:41.100Z,6.20
2018-07-16T11:56:18.055Z,4.53
2018-07-16T11:58:55.220Z,2.27
2018-07-16T12:01:32.088Z,1.73
2018-07-16T12:04:09.331Z,1.43
2018-07-16T12:06:46.704Z,1.83
2018-07-16T12:09:23.627Z,2.27
2018-07-16T12:12:00.935Z,2.63
2018-07-16T12:14:38.452Z,2.00
2018-07-16T12:17:14.937Z,2.80
2018-07-16T12:19:52.091Z,2.33
2018-07-16T12:22:28.417Z,1.70
2018-07-16T12:25:05.225Z,1.50
2018-07-16T12:27:44.021Z,1.90
2018-07-16T12:30:21.217Z,1.50
2018-07-16T12:32:59.033Z,1.90
2018-07-16T12:35:36.033Z,1.93
2018-07-16T12:38:18.681Z,1.80
2018-07-16T12:40:56.935Z,1.43
2018-07-16T12:43:33.584Z,1.80
2018-07-16T12:46:12.145Z,1.90
2018-07-16T12:48:49.704Z,1.70
2018-07-16T12:51:27.048Z,1.50
2018-07-16T12:54:03.719Z,2.33
2018-07-16T12:56:40.369Z,1.90
2018-07-16T12:59:17.090Z,2.47
2018-07-16T13:01:54.117Z,1.30
2018-07-16T13:04:30.571Z,1.70
2018-07-16T13:07:07.363Z,1.83
2018-07-16T13:09:44.003Z,2.00
2018-07-16T13:12:20.129Z,2.07
2018-07-16T13:14:57.476Z,1.90
2018-07-16T13:17:33.298Z,2.27
2018-07-16T13:20:09.872Z,3.67
2018-07-16T13:22:46.174Z,2.00
2018-07-16T13:25:22.788Z,3.10
2018-07-16T13:27:58.984Z,1.70
2018-07-16T13:30:34.830Z,2.47
2018-07-16T13:33:11.620Z,3.20
2018-07-16T13:35:48.305Z,3.10
2018-07-16T13:38:24.305Z,2.10
2018-07-16T13:41:00.575Z,2.33
2018-07-16T13:43:36.827Z,2.97
2018-07-16T13:46:13.518Z,3.47
2018-07-16T13:48:49.552Z,4.20
2018-07-16T13:51:26.536Z,3.10
2018-07-16T13:54:03.240Z,2.33
2018-07-16T13:56:39.531Z,2.33
2018-07-16T13:59:16.051Z,2.90
2018-07-16T14:01:52.368Z,3.37
2018-07-16T14:04:28.153Z,3.23
2018-07-16T14:07:04.065Z,3.10
2018-07-16T14:09:40.875Z,2.63
2018-07-16T14:12:17.651Z,3.47
2018-07-16T14:14:53.551Z,3.40
2018-07-16T14:17:30.195Z,3.13
2018-07-16T14:20:07.512Z,4.00
2018-07-16T14:22:45.487Z,3.10
2018-07-16T14:25:22.051Z,2.93
2018-07-16T14:27:58.455Z,3.80
2018-07-16T14:30:34.979Z,3.07
2018-07-16T14:33:11.501Z,2.57
2018-07-16T14:35:47.864Z,3.63
2018-07-16T14:38:24.418Z,3.60
2018-07-16T14:41:00.449Z,2.87
2018-07-16T14:43:36.197Z,3.10
2018-07-16T14:46:17.457Z,3.37
2018-07-16T14:48:54.151Z,2.40
2018-07-16T14:51:31.094Z,2.57
2018-07-16T14:54:07.756Z,3.08
2018-07-16T14:56:44.841Z,3.10
2018-07-16T14:59:21.777Z,3.23
2018-07-16T15:01:58.451Z,3.90
2018-07-16T15:04:36.042Z,3.47
2018-07-16T15:07:12.662Z,3.80
2018-07-16T15:09:50.507Z,3.73
2018-07-16T15:12:26.887Z,3.53
2018-07-16T15:15:03.459Z,3.40
2018-07-16T15:17:40.552Z,4.10
2018-07-16T15:20:17.408Z,3.40
2018-07-16T15:22:53.990Z,4.40
2018-07-16T15:25:30.532Z,4.15
2018-07-16T15:28:07.337Z,3.73
2018-07-16T15:30:44.204Z,3.97
2018-07-16T15:33:22.938Z,4.50
2018-07-16T15:35:59.482Z,4.10
2018-07-16T15:38:36.079Z,4.40
2018-07-16T15:41:12.442Z,3.70
2018-07-16T15:43:49.931Z,4.20
2018-07-16T15:46:28.448Z,3.83
2018-07-16T15:49:05.750Z,5.73
2018-07-16T15:51:42.593Z,4.77
2018-07-16T15:54:19.520Z,3.93
2018-07-16T15:56:56.023Z,4.40
2018-07-16T15:59:32.751Z,4.47
2018-07-16T16:02:09.400Z,4.90
2018-07-16T16:04:46.186Z,5.70
2018-07-16T16:07:23.031Z,4.67
2018-07-16T16:10:00.313Z,4.83
2018-07-16T16:12:36.597Z,5.20
2018-07-16T16:15:14.014Z,5.73
2018-07-16T16:17:50.715Z,4.57
2018-07-16T16:20:27.274Z,5.10
2018-07-16T16:23:03.823Z,4.87
2018-07-16T16:25:39.941Z,4.40
2018-07-16T16:28:16.377Z,5.00
2018-07-16T16:30:53.845Z,5.63
2018-07-16T16:33:30.318Z,4.43
2018-07-16T16:36:06.489Z,5.53
2018-07-16T16:38:43.347Z,5.03
2018-07-16T16:41:21.764Z,5.17
2018-07-16T16:43:57.694Z,4.60
2018-07-16T16:46:33.486Z,5.17
2018-07-16T16:49:11.305Z,5.20
2018-07-16T16:51:47.608Z,4.63
2018-07-16T16:54:23.901Z,5.97
2018-07-16T16:57:00.782Z,5.33
2018-07-16T16:59:37.350Z,6.50
2018-07-16T17:02:14.999Z,4.93
2018-07-16T17:04:51.010Z,5.40
2018-07-16T17:07:27.865Z,5.40
2018-07-16T17:10:04.609Z,4.80
2018-07-16T17:12:40.717Z,6.10
2018-07-16T17:15:16.861Z,6.00
2018-07-16T17:17:53.489Z,6.10
2018-07-16T17:20:30.132Z,5.53
2018-07-16T17:23:06.595Z,6.97
2018-07-16T17:25:44.006Z,6.47
2018-07-16T17:28:20.900Z,6.50
2018-07-16T17:30:56.721Z,7.03
2018-07-16T17:33:32.991Z,5.53
2018-07-16T17:36:10.067Z,5.27
2018-07-16T17:38:46.191Z,7.20
2018-07-16T17:41:22.871Z,6.70
2018-07-16T17:43:59.881Z,6.07
2018-07-16T17:46:37.146Z,5.83
2018-07-16T17:49:14.344Z,5.70
2018-07-16T17:51:50.336Z,6.00
2018-07-16T17:54:26.315Z,6.70
2018-07-16T17:57:01.982Z,6.63
2018-07-16T17:59:37.973Z,6.87
2018-07-16T18:05:15.288Z,5.50
2018-07-16T18:07:51.109Z,6.40
2018-07-16T18:10:27.293Z,5.33
2018-07-16T18:13:04.211Z,7.07
2018-07-16T18:15:41.060Z,6.80
2018-07-16T18:18:21.767Z,5.20
2018-07-16T18:20:59.799Z,6.60
2018-07-16T18:23:37.871Z,6.50
2018-07-16T18:26:15.298Z,6.07
2018-07-16T18:28:52.426Z,8.57
2018-07-16T18:31:29.834Z,6.70
2018-07-16T18:34:06.373Z,7.00
2018-07-16T18:36:44.983Z,5.20
2018-07-16T18:39:22.105Z,6.50
2018-07-16T18:42:00.409Z,5.33
2018-07-16T18:44:37.886Z,7.03
2018-07-16T18:47:16.277Z,6.40
2018-07-16T18:49:52.891Z,6.60
2018-07-16T18:52:29.942Z,6.73
2018-07-16T18:55:06.972Z,6.37
2018-07-16T18:57:43.587Z,6.27
2018-07-16T19:00:20.132Z,5.90
2018-07-16T19:02:57.092Z,6.03
2018-07-16T19:05:33.300Z,5.63
2018-07-16T19:08:10.331Z,7.50
2018-07-16T19:10:47.404Z,6.77
2018-07-16T19:13:23.708Z,6.30
2018-07-16T19:16:00.871Z,5.37
2018-07-16T19:18:38.458Z,6.00
2018-07-16T19:21:15.205Z,7.23
2018-07-16T19:23:52.179Z,6.07
2018-07-16T19:26:29.138Z,6.23
2018-07-16T19:29:06.683Z,7.70
2018-07-16T19:31:43.671Z,6.77
2018-07-16T19:34:19.727Z,7.93
2018-07-16T19:36:55.636Z,8.03
2018-07-16T19:39:32.015Z,6.47
2018-07-16T19:42:08.575Z,6.80
2018-07-16T19:44:46.045Z,7.07
2018-07-16T19:47:23.704Z,6.97
2018-07-16T19:50:00.792Z,8.37
2018-07-16T19:52:38.050Z,6.70
2018-07-16T19:55:16.525Z,6.00
2018-07-16T19:57:52.563Z,6.67
2018-07-16T20:00:29.919Z,6.30
2018-07-16T20:03:07.039Z,8.60
2018-07-16T20:05:45.402Z,7.10
2018-07-16T20:08:22.210Z,6.60
2018-07-16T20:10:58.483Z,6.77
2018-07-16T20:13:36.562Z,7.70
2018-07-16T20:16:15.201Z,6.60
2018-07-16T20:18:51.684Z,5.93
2018-07-16T20:21:28.063Z,7.67
2018-07-16T20:24:05.475Z,8.53
2018-07-16T20:26:41.522Z,6.40
2018-07-16T20:29:18.035Z,5.97
2018-07-16T20:31:55.921Z,6.10
2018-07-16T20:34:33.532Z,6.93
2018-07-16T20:37:10.449Z,6.20
2018-07-16T20:39:47.235Z,6.90
2018-07-16T20:42:24.262Z,5.97
2018-07-16T20:45:01.394Z,5.47
2018-07-16T20:47:37.577Z,6.07
2018-07-16T20:50:14.536Z,7.47
2018-07-16T20:52:50.869Z,7.50
2018-07-16T20:55:28.407Z,6.90
2018-07-16T20:58:05.263Z,5.90
2018-07-16T21:00:41.917Z,6.77
2018-07-16T21:03:18.829Z,7.07
2018-07-16T21:05:55.383Z,6.77
2018-07-16T21:08:32.392Z,5.97
2018-07-16T21:11:10.506Z,6.20
2018-07-16T21:13:47.572Z,6.53
2018-07-16T21:16:24.815Z,6.37
2018-07-16T21:19:01.625Z,6.63
2018-07-16T21:21:37.839Z,6.30
2018-07-16T21:24:14.720Z,6.63
2018-07-16T21:26:51.371Z,6.20
2018-07-16T21:29:27.320Z,6.67
2018-07-16T21:32:04.788Z,7.23
2018-07-16T21:34:42.939Z,6.10
2018-07-16T21:37:21.953Z,5.87
2018-07-16T21:39:59.816Z,7.10
2018-07-16T21:42:37.198Z,7.37
2018-07-16T21:45:13.651Z,5.60
2018-07-16T21:47:50.547Z,5.63
2018-07-16T21:50:27.344Z,6.10
2018-07-16T21:53:04.735Z,6.37
2018-07-16T21:55:41.064Z,8.10
2018-07-16T21:58:18.128Z,6.10
2018-07-16T22:00:55.604Z,7.73
2018-07-16T22:03:32.985Z,5.93
2018-07-16T22:06:11.255Z,6.03
2018-07-16T22:08:47.971Z,7.07
2018-07-16T22:11:25.795Z,6.30
2018-07-16T22:14:02.553Z,7.60
2018-07-16T22:16:39.712Z,7.63
2018-07-16T22:19:17.084Z,6.27
2018-07-16T22:21:53.366Z,6.67
2018-07-16T22:24:30.916Z,6.60
2018-07-16T22:27:09.516Z,6.70
2018-07-16T22:29:48.195Z,7.10
2018-07-16T22:32:25.054Z,7.10
2018-07-16T22:35:03.380Z,5.77
2018-07-16T22:37:41.316Z,5.93
2018-07-16T22:40:18.444Z,6.90
2018-07-16T22:42:55.143Z,6.80
2018-07-16T22:45:31.101Z,5.57
2018-07-16T22:48:08.578Z,6.90
2018-07-16T22:50:45.744Z,7.07
2018-07-16T22:53:21.817Z,7.30
2018-07-16T22:55:58.056Z,7.43
2018-07-16T22:58:35.945Z,5.80
2018-07-16T23:01:13.275Z,6.33
2018-07-16T23:03:49.921Z,6.23
2018-07-16T23:06:27.213Z,5.23
2018-07-16T23:09:04.432Z,6.17
2018-07-16T23:11:41.726Z,6.33
2018-07-16T23:14:17.952Z,6.33
2018-07-16T23:16:54.545Z,5.80
2018-07-16T23:19:30.551Z,6.57
2018-07-16T23:22:06.726Z,6.17
2018-07-16T23:24:44.138Z,7.07
2018-07-16T23:27:20.314Z,6.07
2018-07-16T23:29:57.208Z,6.30
2018-07-16T23:32:34.137Z,6.60
2018-07-16T23:35:10.517Z,6.97
2018-07-16T23:37:51.911Z,5.93
2018-07-16T23:40:29.537Z,5.70
2018-07-16T23:43:06.663Z,6.20
2018-07-16T23:45:42.994Z,7.10
2018-07-16T23:48:19.243Z,6.87
2018-07-16T23:50:55.993Z,5.70
2018-07-16T23:53:33.416Z,5.90
2018-07-16T23:56:10.139Z,6.80
2018-07-16T23:58:47.162Z,5.83
